Time;durP1;ratioP1;P1;durP2;ratioP2;P2;SDS_P1;SDS_P2;PMS_P1;PMS_P2;Temp;Humidity;BMP_temperature;BMP_pressure;BME280_temperature;BME280_humidity;BME280_pressure;Samples;Min_cycle;Max_cycle;Signal;HPM_P1;HPM_P2
2023/12/16 00:00:57;;;;;;;125.57;57.30;;;15.50;70.10;;;;;;5054182;28;20043;-41
2023/12/16 00:03:23;;;;;;;127.30;57.38;;;15.50;70.10;;;;;;5056448;28;20046;-39
2023/12/16 00:05:49;;;;;;;127.50;57.92;;;15.50;70.10;;;;;;5056674;28;20103;-39
2023/12/16 00:08:14;;;;;;;125.68;57.10;;;15.50;70.10;;;;;;5058445;28;20132;-42
2023/12/16 00:10:40;;;;;;;125.63;56.95;;;15.50;70.00;;;;;;5058226;28;20034;-40
2023/12/16 00:13:06;;;;;;;127.28;57.45;;;15.50;70.30;;;;;;5056395;28;20036;-40
2023/12/16 00:15:31;;;;;;;127.07;57.08;;;15.40;69.90;;;;;;5063283;28;20048;-41
2023/12/16 00:17:57;;;;;;;125.80;57.30;;;15.40;70.00;;;;;;5059054;28;20049;-44
2023/12/16 00:20:23;;;;;;;125.75;57.15;;;15.40;70.10;;;;;;5055388;28;20033;-40
2023/12/16 00:22:49;;;;;;;126.80;57.33;;;15.40;70.00;;;;;;5057421;28;20033;-38
2023/12/16 00:25:14;;;;;;;129.70;57.78;;;15.40;70.00;;;;;;5058280;28;20041;-38
2023/12/16 00:27:40;;;;;;;126.55;57.88;;;15.40;69.90;;;;;;5057491;28;20045;-39
2023/12/16 00:30:08;;;;;;;128.25;57.33;;;15.40;70.00;;;;;;5056750;28;20030;-38
2023/12/16 00:32:34;;;;;;;127.57;56.88;;;15.40;70.20;;;;;;5062483;28;20043;-38
2023/12/16 00:34:59;;;;;;;127.47;57.45;;;15.40;70.00;;;;;;5056698;28;21063;-38
2023/12/16 00:37:25;;;;;;;125.55;56.90;;;15.40;70.00;;;;;;5064256;28;20511;-40
2023/12/16 00:39:50;;;;;;;125.78;57.22;;;15.40;70.10;;;;;;5058421;28;20029;-39
2023/12/16 00:42:16;;;;;;;127.65;57.33;;;15.40;70.00;;;;;;5055231;28;20041;-38
2023/12/16 00:44:42;;;;;;;124.93;56.80;;;15.40;70.00;;;;;;5062207;28;20033;-39
2023/12/16 00:47:07;;;;;;;126.82;56.97;;;15.40;70.00;;;;;;5059499;28;20570;-39
2023/12/16 00:49:33;;;;;;;126.35;56.72;;;15.40;69.90;;;;;;5063335;28;20129;-39
2023/12/16 00:51:59;;;;;;;127.28;57.35;;;15.40;70.00;;;;;;5058086;28;20407;-41
2023/12/16 00:54:26;;;;;;;127.25;57.33;;;15.40;70.00;;;;;;5058924;28;20049;-38
2023/12/16 00:56:52;;;;;;;125.95;57.17;;;15.40;70.00;;;;;;5056645;28;20061;-39
2023/12/16 00:59:17;;;;;;;125.25;56.95;;;15.30;70.00;;;;;;5054883;28;23357;-39
2023/12/16 01:01:43;;;;;;;125.97;56.65;;;15.30;69.90;;;;;;5055818;28;20467;-39
2023/12/16 01:04:12;;;;;;;125.25;57.20;;;15.40;70.00;;;;;;5056920;28;20037;-39
2023/12/16 01:06:37;;;;;;;125.43;56.75;;;15.40;70.00;;;;;;5057214;28;20042;-38
2023/12/16 01:09:03;;;;;;;125.45;57.28;;;15.40;70.10;;;;;;5057466;28;20029;-38
2023/12/16 01:11:29;;;;;;;127.07;57.03;;;15.30;69.90;;;;;;5060300;28;20475;-38
2023/12/16 01:13:54;;;;;;;126.53;56.72;;;15.30;69.90;;;;;;5054104;28;20044;-38
2023/12/16 01:16:20;;;;;;;125.18;56.58;;;15.30;70.10;;;;;;5057245;28;20044;-38
2023/12/16 01:18:46;;;;;;;127.65;57.33;;;15.30;70.00;;;;;;5053540;28;20653;-38
2023/12/16 01:21:11;;;;;;;124.00;56.38;;;15.30;70.00;;;;;;5055602;28;20045;-38
2023/12/16 01:23:37;;;;;;;126.53;56.88;;;15.30;70.00;;;;;;5057310;28;20113;-38
2023/12/16 01:26:04;;;;;;;123.80;56.00;;;15.30;70.00;;;;;;5064251;28;20037;-38
2023/12/16 01:28:30;;;;;;;124.75;56.67;;;15.30;70.00;;;;;;5061322;28;20040;-38
2023/12/16 01:30:56;;;;;;;126.22;56.70;;;15.30;70.00;;;;;;5057626;28;20118;-40
2023/12/16 01:33:22;;;;;;;125.75;56.95;;;15.30;70.00;;;;;;5056693;28;20944;-40
2023/12/16 01:35:48;;;;;;;125.85;57.33;;;15.20;70.70;;;;;;5036255;28;20037;-41
2023/12/16 01:38:14;;;;;;;127.10;57.47;;;15.30;70.00;;;;;;5041318;28;20179;-38
2023/12/16 01:40:40;;;;;;;126.60;57.22;;;15.30;70.00;;;;;;5043501;28;20033;-41
2023/12/16 01:43:07;;;;;;;126.55;56.60;;;15.20;70.00;;;;;;5056525;28;20060;-39
2023/12/16 01:45:32;;;;;;;125.60;56.97;;;15.20;70.10;;;;;;5055004;28;20200;-39
2023/12/16 01:47:59;;;;;;;125.30;56.20;;;15.20;70.10;;;;;;5057267;28;20398;-40
2023/12/16 01:50:47;;;;;;;124.97;56.78;;;15.20;70.10;;;;;;5055801;28;20526;-40
2023/12/16 01:53:13;;;;;;;126.03;56.80;;;15.20;70.00;;;;;;5058186;28;20170;-46
2023/12/16 01:55:38;;;;;;;126.00;56.58;;;15.20;70.90;;;;;;5057816;28;20045;-40
2023/12/16 01:58:04;;;;;;;124.38;56.35;;;15.10;70.00;;;;;;5054945;28;20045;-40
2023/12/16 02:00:30;;;;;;;124.72;56.90;;;15.10;70.10;;;;;;5051568;28;20037;-40
2023/12/16 02:02:56;;;;;;;126.80;56.97;;;15.20;70.20;;;;;;5052121;28;20091;-42
2023/12/16 02:05:22;;;;;;;125.00;56.35;;;15.20;70.10;;;;;;5058205;28;20687;-40
2023/12/16 02:07:47;;;;;;;128.13;56.75;;;15.10;70.20;;;;;;5056783;28;20285;-40
2023/12/16 02:10:13;;;;;;;124.55;56.47;;;15.10;70.20;;;;;;5060283;28;20652;-43
2023/12/16 02:12:39;;;;;;;122.95;55.83;;;15.10;70.20;;;;;;5059675;28;20057;-42
2023/12/16 02:15:05;;;;;;;123.53;55.95;;;15.10;70.20;;;;;;5062980;28;20069;-42
2023/12/16 02:17:31;;;;;;;125.75;56.67;;;15.10;70.30;;;;;;5060315;28;20098;-42
2023/12/16 02:19:56;;;;;;;126.13;56.75;;;15.10;70.20;;;;;;5063666;28;20450;-39
2023/12/16 02:22:23;;;;;;;126.70;56.67;;;15.10;70.30;;;;;;5054100;28;20069;-39
2023/12/16 02:24:49;;;;;;;125.63;56.72;;;15.00;70.30;;;;;;5057481;28;20934;-39
2023/12/16 02:27:15;;;;;;;125.10;56.15;;;15.00;70.40;;;;;;5059231;28;20435;-40
2023/12/16 02:29:41;;;;;;;123.93;55.58;;;15.00;70.40;;;;;;5061467;28;20028;-39
2023/12/16 02:32:07;;;;;;;124.97;56.63;;;15.00;70.40;;;;;;5057021;28;20049;-42
2023/12/16 02:34:33;;;;;;;124.95;56.10;;;15.00;70.40;;;;;;5058869;28;20059;-40
2023/12/16 02:37:02;;;;;;;124.68;56.38;;;15.00;70.30;;;;;;5062006;28;20454;-41
2023/12/16 02:39:28;;;;;;;125.10;56.53;;;15.10;70.40;;;;;;5062490;28;20029;-39
2023/12/16 02:41:53;;;;;;;124.78;56.22;;;15.00;70.40;;;;;;5065721;28;20880;-42
2023/12/16 02:44:19;;;;;;;123.82;56.28;;;15.00;70.40;;;;;;5061796;28;20049;-41
2023/12/16 02:46:45;;;;;;;126.65;56.33;;;15.00;70.40;;;;;;5061443;28;20041;-39
2023/12/16 02:49:10;;;;;;;124.05;55.67;;;15.00;70.40;;;;;;5061453;28;20068;-39
2023/12/16 02:51:36;;;;;;;124.70;55.83;;;15.00;70.40;;;;;;5062242;28;20046;-39
2023/12/16 02:54:02;;;;;;;124.85;56.35;;;14.90;70.50;;;;;;5061419;28;20042;-39
2023/12/16 02:56:27;;;;;;;126.20;56.45;;;14.90;70.50;;;;;;5060548;28;20515;-41
2023/12/16 02:58:53;;;;;;;125.22;56.17;;;15.00;70.40;;;;;;5062006;28;20438;-42
2023/12/16 03:01:19;;;;;;;124.18;55.70;;;14.90;70.40;;;;;;5058292;28;20462;-42
2023/12/16 03:03:44;;;;;;;125.22;56.33;;;14.90;70.50;;;;;;5057311;28;20083;-42
2023/12/16 03:06:10;;;;;;;124.25;56.35;;;14.90;70.60;;;;;;5061940;28;20102;-39
2023/12/16 03:08:36;;;;;;;124.47;56.15;;;14.90;70.60;;;;;;5056656;28;20041;-39
2023/12/16 03:11:02;;;;;;;124.53;55.75;;;14.90;70.50;;;;;;5064804;28;20140;-39
2023/12/16 03:13:28;;;;;;;125.43;55.80;;;14.90;70.70;;;;;;5058898;28;20487;-40
2023/12/16 03:15:54;;;;;;;123.00;54.95;;;14.90;70.70;;;;;;5059346;28;20044;-40
2023/12/16 03:18:20;;;;;;;123.72;56.20;;;14.90;70.70;;;;;;5061022;28;20048;-39
2023/12/16 03:20:45;;;;;;;124.38;55.72;;;14.90;70.70;;;;;;5064227;28;20041;-39
2023/12/16 03:23:11;;;;;;;122.75;55.95;;;14.80;70.60;;;;;;5063464;28;20490;-39
2023/12/16 03:25:43;;;;;;;124.18;55.80;;;14.80;70.60;;;;;;5060616;28;20037;-46
2023/12/16 03:28:12;;;;;;;124.45;56.30;;;14.80;70.80;;;;;;5061687;28;20107;-42
2023/12/16 03:30:40;;;;;;;124.72;56.42;;;14.90;70.70;;;;;;5060678;28;20131;-43
2023/12/16 03:33:06;;;;;;;124.78;56.42;;;14.80;70.60;;;;;;5060121;28;20106;-40
2023/12/16 03:35:31;;;;;;;124.53;56.58;;;14.80;70.60;;;;;;5059954;28;20668;-41
2023/12/16 03:37:57;;;;;;;125.55;56.22;;;14.80;70.70;;;;;;5058093;28;20136;-41
2023/12/16 03:40:23;;;;;;;123.93;55.40;;;14.80;70.60;;;;;;5056898;28;20047;-39
2023/12/16 03:42:48;;;;;;;123.20;55.63;;;14.80;70.70;;;;;;5059146;28;20144;-41
2023/12/16 03:45:14;;;;;;;124.30;56.33;;;14.80;70.60;;;;;;5057710;28;20033;-43
2023/12/16 03:47:40;;;;;;;125.93;56.45;;;14.80;70.50;;;;;;5054041;28;20049;-45
2023/12/16 03:50:06;;;;;;;123.68;55.95;;;14.80;70.60;;;;;;5057740;28;20128;-39
2023/12/16 03:52:32;;;;;;;122.47;55.72;;;14.90;70.50;;;;;;5054829;28;20489;-40
2023/12/16 03:54:57;;;;;;;124.03;55.60;;;14.80;70.40;;;;;;5057415;28;20069;-39
2023/12/16 03:57:23;;;;;;;124.68;55.85;;;14.80;70.50;;;;;;5062898;28;20041;-40
2023/12/16 03:59:48;;;;;;;123.60;55.90;;;14.80;70.50;;;;;;5054974;28;20123;-39
2023/12/16 04:02:14;;;;;;;125.32;56.42;;;14.90;70.40;;;;;;5048329;28;20435;-40
2023/12/16 04:04:41;;;;;;;123.07;55.88;;;14.90;70.30;;;;;;5054544;28;20025;-41
2023/12/16 04:07:07;;;;;;;124.40;56.13;;;14.80;70.30;;;;;;5059895;28;20949;-41
2023/12/16 04:09:33;;;;;;;122.20;55.83;;;14.80;70.30;;;;;;5054522;28;20109;-40
2023/12/16 04:11:58;;;;;;;124.75;55.90;;;14.80;70.30;;;;;;5053729;28;20099;-39
2023/12/16 04:14:25;;;;;;;124.03;55.83;;;14.80;70.40;;;;;;5055109;28;20048;-39
2023/12/16 04:16:51;;;;;;;123.55;55.55;;;14.80;70.30;;;;;;5050314;28;20557;-39
2023/12/16 04:19:17;;;;;;;124.22;55.72;;;14.80;70.30;;;;;;5056478;28;20045;-40
2023/12/16 04:21:42;;;;;;;124.32;55.85;;;14.80;70.20;;;;;;5055736;28;20040;-40
2023/12/16 04:24:08;;;;;;;122.05;55.53;;;14.80;70.30;;;;;;5056225;28;20060;-39
2023/12/16 04:26:36;;;;;;;123.38;56.10;;;14.80;70.20;;;;;;5056815;28;20497;-39
2023/12/16 04:29:02;;;;;;;124.63;55.58;;;14.80;70.20;;;;;;5056374;28;20045;-40
2023/12/16 04:31:27;;;;;;;122.95;55.80;;;14.80;70.10;;;;;;5053986;28;20053;-39
2023/12/16 04:33:55;;;;;;;123.03;55.83;;;14.80;70.20;;;;;;5051903;28;20036;-43
2023/12/16 04:36:21;;;;;;;124.72;55.80;;;14.80;70.10;;;;;;5056018;28;20068;-40
2023/12/16 04:38:46;;;;;;;124.95;55.70;;;14.80;70.00;;;;;;5055538;28;21700;-42
2023/12/16 04:41:14;;;;;;;124.18;55.72;;;14.80;70.00;;;;;;5054838;28;20036;-40
2023/12/16 04:43:40;;;;;;;124.15;55.60;;;14.80;70.20;;;;;;5015989;28;1163782;-40
2023/12/16 04:46:06;;;;;;;122.18;55.63;;;14.80;70.20;;;;;;5053540;28;20033;-40
2023/12/16 04:48:32;;;;;;;122.97;55.63;;;14.80;70.00;;;;;;5056399;28;20063;-40
2023/12/16 04:51:07;;;;;;;123.32;55.55;;;14.80;70.00;;;;;;5060949;28;20080;-42
2023/12/16 04:53:33;;;;;;;124.13;56.13;;;14.80;70.00;;;;;;5061135;28;20622;-39
2023/12/16 04:55:59;;;;;;;123.50;55.92;;;14.80;70.10;;;;;;5054118;28;20049;-39
2023/12/16 04:58:26;;;;;;;125.35;56.08;;;14.80;70.10;;;;;;5054477;28;20049;-40
2023/12/16 05:00:52;;;;;;;124.03;55.85;;;14.80;70.10;;;;;;5051231;28;20099;-38
2023/12/16 05:03:17;;;;;;;121.47;55.00;;;14.80;70.20;;;;;;5056098;28;20129;-37
2023/12/16 05:05:43;;;;;;;122.07;55.22;;;14.80;70.10;;;;;;5059929;28;20536;-38
2023/12/16 05:08:09;;;;;;;122.72;55.85;;;14.70;70.10;;;;;;5059727;28;20041;-39
2023/12/16 05:10:35;;;;;;;125.18;55.97;;;14.80;70.20;;;;;;5057060;28;20046;-47
2023/12/16 05:13:01;;;;;;;123.65;55.80;;;14.80;69.90;;;;;;5056818;28;20084;-47
2023/12/16 05:15:26;;;;;;;123.57;55.60;;;14.80;70.20;;;;;;5061831;28;20038;-47
2023/12/16 05:17:52;;;;;;;126.35;55.72;;;14.80;70.00;;;;;;5059505;28;20051;-46
2023/12/16 05:20:18;;;;;;;125.53;56.03;;;14.80;70.00;;;;;;5060123;28;20039;-46
2023/12/16 05:22:43;;;;;;;124.22;55.53;;;14.80;70.00;;;;;;5062812;28;20560;-47
2023/12/16 05:25:10;;;;;;;124.80;56.10;;;14.80;69.90;;;;;;5055868;28;20025;-47
2023/12/16 05:27:35;;;;;;;125.38;56.38;;;14.80;70.60;;;;;;5061770;28;20091;-47
2023/12/16 05:30:02;;;;;;;125.90;56.30;;;14.80;69.90;;;;;;5059178;28;20076;-47
2023/12/16 05:32:28;;;;;;;122.45;55.17;;;14.80;69.90;;;;;;5061888;28;20128;-46
2023/12/16 05:34:54;;;;;;;123.40;55.75;;;14.80;70.20;;;;;;5057931;28;20034;-47
2023/12/16 05:37:20;;;;;;;121.90;55.33;;;14.80;70.20;;;;;;5055477;28;20607;-47
2023/12/16 05:39:46;;;;;;;125.63;56.22;;;14.90;70.10;;;;;;5056322;28;20531;-47
2023/12/16 05:42:12;;;;;;;124.82;55.42;;;14.90;70.00;;;;;;5058787;28;20061;-47
2023/12/16 05:44:37;;;;;;;123.97;55.75;;;14.90;70.00;;;;;;5058565;28;20120;-47
2023/12/16 05:47:05;;;;;;;123.05;55.58;;;14.90;69.90;;;;;;5054508;28;20680;-47
2023/12/16 05:49:30;;;;;;;123.70;55.67;;;14.90;70.00;;;;;;5055435;28;20406;-46
2023/12/16 05:51:56;;;;;;;126.63;55.65;;;14.90;70.00;;;;;;5057001;28;20549;-47
2023/12/16 05:54:24;;;;;;;122.97;55.42;;;14.90;70.00;;;;;;5060745;28;20048;-46
2023/12/16 05:56:50;;;;;;;123.25;55.80;;;14.90;70.00;;;;;;5061691;28;20049;-47
2023/12/16 05:59:15;;;;;;;123.72;55.95;;;14.90;69.90;;;;;;5062744;28;20561;-47
2023/12/16 06:01:41;;;;;;;123.95;55.65;;;14.90;69.90;;;;;;5056621;28;20041;-47
2023/12/16 06:04:07;;;;;;;122.47;55.55;;;14.90;69.90;;;;;;5055494;28;20040;-47
2023/12/16 06:06:32;;;;;;;124.18;55.35;;;14.90;70.10;;;;;;5059833;28;20053;-47
2023/12/16 06:08:58;;;;;;;124.13;56.00;;;14.90;70.00;;;;;;5054413;28;20034;-47
2023/12/16 06:11:24;;;;;;;121.97;55.20;;;14.90;70.00;;;;;;5060949;28;20535;-39
2023/12/16 06:13:53;;;;;;;124.63;55.70;;;14.90;70.00;;;;;;5058220;28;20042;-39
2023/12/16 06:16:18;;;;;;;123.22;55.80;;;14.90;70.10;;;;;;5058540;28;20094;-40
2023/12/16 06:18:46;;;;;;;122.90;56.00;;;14.90;70.10;;;;;;5053343;28;20041;-42
2023/12/16 06:21:12;;;;;;;122.80;55.35;;;14.80;69.90;;;;;;5060508;28;20079;-41
2023/12/16 06:23:38;;;;;;;122.25;55.28;;;14.80;70.10;;;;;;5060554;28;20120;-39
2023/12/16 06:26:03;;;;;;;123.53;55.38;;;14.80;70.20;;;;;;5060257;28;20420;-40
2023/12/16 06:28:29;;;;;;;122.53;55.50;;;14.80;70.20;;;;;;5062758;28;20041;-42
2023/12/16 06:30:55;;;;;;;122.97;55.92;;;14.80;70.20;;;;;;5057578;28;20025;-41
2023/12/16 06:33:22;;;;;;;122.28;55.10;;;14.80;70.30;;;;;;5065097;28;20041;-39
2023/12/16 06:35:48;;;;;;;121.70;55.22;;;14.80;70.30;;;;;;5063258;28;20159;-43
2023/12/16 06:38:14;;;;;;;122.45;55.47;;;14.80;70.20;;;;;;5058708;28;20071;-39
2023/12/16 06:40:40;;;;;;;123.75;55.35;;;14.80;70.10;;;;;;5061230;28;20643;-39
2023/12/16 06:43:06;;;;;;;123.55;56.00;;;14.80;70.20;;;;;;5056667;28;20045;-41
2023/12/16 06:45:32;;;;;;;123.35;55.72;;;14.80;70.20;;;;;;5062957;28;20044;-39
2023/12/16 06:47:58;;;;;;;123.38;55.50;;;14.80;70.00;;;;;;5061786;28;20045;-42
2023/12/16 06:50:23;;;;;;;122.82;56.13;;;14.80;70.20;;;;;;5062768;28;20589;-42
2023/12/16 06:52:49;;;;;;;123.82;55.85;;;14.80;70.20;;;;;;5061325;28;20037;-39
2023/12/16 06:55:15;;;;;;;124.03;55.75;;;14.80;70.20;;;;;;5058038;28;20045;-39
2023/12/16 06:57:41;;;;;;;123.10;55.25;;;14.80;70.80;;;;;;5065072;28;20056;-41
2023/12/16 07:00:09;;;;;;;123.95;55.88;;;14.80;70.20;;;;;;5063905;28;20033;-42
2023/12/16 07:02:36;;;;;;;123.88;56.28;;;14.80;70.20;;;;;;5057432;28;20151;-39
2023/12/16 07:05:02;;;;;;;123.47;55.97;;;14.80;70.10;;;;;;5058562;28;20041;-45
2023/12/16 07:07:28;;;;;;;123.90;55.75;;;14.80;70.00;;;;;;5054980;28;20119;-40
2023/12/16 07:09:53;;;;;;;122.90;56.03;;;14.80;69.90;;;;;;5060180;28;20044;-40
2023/12/16 07:12:19;;;;;;;124.85;55.65;;;14.80;70.00;;;;;;5058921;28;20472;-42
2023/12/16 07:14:45;;;;;;;122.95;55.72;;;14.80;70.10;;;;;;5065126;28;20048;-41
2023/12/16 07:17:11;;;;;;;123.38;55.50;;;14.80;70.20;;;;;;5056841;28;20041;-42
2023/12/16 07:19:37;;;;;;;122.00;55.17;;;14.80;70.30;;;;;;5059579;28;20525;-44
2023/12/16 07:22:03;;;;;;;122.82;55.25;;;14.80;70.20;;;;;;5059911;28;20064;-38
2023/12/16 07:24:28;;;;;;;122.03;55.03;;;14.80;70.30;;;;;;5059725;28;20471;-41
2023/12/16 07:26:54;;;;;;;125.60;56.00;;;14.80;70.20;;;;;;5063061;28;20136;-41
2023/12/16 07:29:20;;;;;;;123.50;55.22;;;14.80;70.30;;;;;;5058838;28;20144;-39
2023/12/16 07:31:49;;;;;;;122.75;55.38;;;14.90;70.10;;;;;;5058926;28;20044;-40
2023/12/16 07:34:16;;;;;;;124.32;55.28;;;14.90;70.30;;;;;;5057447;28;20037;-41
2023/12/16 07:36:41;;;;;;;123.63;55.50;;;14.80;70.20;;;;;;5056484;28;20180;-39
2023/12/16 07:39:08;;;;;;;122.43;55.28;;;14.80;70.30;;;;;;5056065;28;20120;-40
2023/12/16 07:41:34;;;;;;;123.28;55.35;;;14.80;70.30;;;;;;5057161;28;20041;-42
2023/12/16 07:44:01;;;;;;;123.13;55.50;;;14.90;70.30;;;;;;5059029;28;20053;-39
2023/12/16 07:46:26;;;;;;;122.95;55.38;;;14.90;70.30;;;;;;5054913;28;20037;-40
2023/12/16 07:48:52;;;;;;;122.85;55.55;;;14.80;70.30;;;;;;5063684;28;20588;-39
2023/12/16 07:51:25;;;;;;;124.47;56.00;;;14.80;70.30;;;;;;5057564;28;20038;-38
2023/12/16 07:53:50;;;;;;;123.80;55.65;;;14.80;70.20;;;;;;5058633;28;20152;-40
2023/12/16 07:56:22;;;;;;;121.45;55.28;;;14.80;70.40;;;;;;5061433;28;20052;-39
2023/12/16 07:58:48;;;;;;;122.85;55.90;;;14.80;70.30;;;;;;5054174;28;20088;-39
2023/12/16 08:01:14;;;;;;;124.70;56.05;;;14.80;70.10;;;;;;5057845;28;20485;-44
2023/12/16 08:03:41;;;;;;;123.72;55.05;;;14.80;70.20;;;;;;5059412;28;20049;-45
2023/12/16 08:06:10;;;;;;;125.47;55.92;;;14.80;70.20;;;;;;5058173;28;20505;-39
2023/12/16 08:08:40;;;;;;;123.53;55.03;;;14.80;70.30;;;;;;5056968;28;20136;-40
2023/12/16 08:11:06;;;;;;;122.60;55.60;;;14.80;70.30;;;;;;5058464;28;20075;-39
2023/12/16 08:13:32;;;;;;;122.25;55.15;;;14.80;70.30;;;;;;5054236;28;20049;-39
2023/12/16 08:15:58;;;;;;;125.72;55.50;;;14.80;70.30;;;;;;5055973;28;20154;-40
2023/12/16 08:18:25;;;;;;;124.95;55.80;;;14.80;70.20;;;;;;5056052;28;20178;-42
2023/12/16 08:20:50;;;;;;;123.22;55.53;;;14.80;70.30;;;;;;5061618;28;20048;-39
2023/12/16 08:23:17;;;;;;;123.65;55.38;;;14.80;70.30;;;;;;5058766;28;20033;-40
2023/12/16 08:25:43;;;;;;;121.95;55.15;;;14.80;70.20;;;;;;5056599;28;20033;-47
2023/12/16 08:28:08;;;;;;;123.55;55.58;;;14.80;70.10;;;;;;5060762;28;20386;-39
2023/12/16 08:30:34;;;;;;;123.13;55.75;;;14.80;70.20;;;;;;5058014;28;20034;-40
2023/12/16 08:33:00;;;;;;;124.25;55.55;;;14.80;70.10;;;;;;5052100;28;20040;-39
2023/12/16 08:35:27;;;;;;;127.65;55.80;;;14.80;70.20;;;;;;5054365;28;20041;-39
2023/12/16 08:37:55;;;;;;;124.38;55.47;;;14.80;70.30;;;;;;5055678;28;20041;-41
2023/12/16 08:40:21;;;;;;;124.20;55.83;;;14.90;70.20;;;;;;5058981;28;20041;-39
2023/12/16 08:42:46;;;;;;;126.90;55.78;;;14.90;70.10;;;;;;5059062;28;20083;-41
2023/12/16 08:45:13;;;;;;;123.18;55.85;;;14.80;70.10;;;;;;5059410;28;20063;-39
2023/12/16 08:47:39;;;;;;;123.05;55.17;;;14.80;70.10;;;;;;5048855;28;20033;-39
2023/12/16 08:50:08;;;;;;;125.45;55.42;;;14.80;70.00;;;;;;5053681;28;20110;-40
2023/12/16 08:52:34;;;;;;;122.82;55.60;;;14.80;70.00;;;;;;5049280;28;20115;-39
2023/12/16 08:55:01;;;;;;;126.90;55.60;;;14.80;70.00;;;;;;5054338;28;20044;-39
2023/12/16 08:57:30;;;;;;;126.07;55.75;;;14.90;70.20;;;;;;5052520;28;20045;-40
2023/12/16 08:59:57;;;;;;;123.95;55.97;;;14.90;70.00;;;;;;5057307;28;20040;-41
2023/12/16 09:02:23;;;;;;;126.95;55.38;;;14.90;70.10;;;;;;5048984;28;20041;-38
2023/12/16 09:04:49;;;;;;;122.10;54.97;;;14.90;70.00;;;;;;5050182;28;20510;-39
2023/12/16 09:07:15;;;;;;;125.03;56.05;;;14.90;70.10;;;;;;5053792;28;20113;-40
2023/12/16 09:09:41;;;;;;;127.05;56.15;;;14.90;69.90;;;;;;5052119;28;20596;-40
2023/12/16 09:12:07;;;;;;;123.72;55.75;;;14.90;70.20;;;;;;5056840;28;20160;-44
2023/12/16 09:14:33;;;;;;;123.93;55.25;;;14.90;70.20;;;;;;5057492;28;20468;-42
2023/12/16 09:17:00;;;;;;;125.40;55.50;;;14.90;70.10;;;;;;5055229;28;20049;-42
2023/12/16 09:19:25;;;;;;;123.35;55.50;;;14.90;70.00;;;;;;5048411;28;20232;-41
2023/12/16 09:21:51;;;;;;;123.18;55.78;;;14.90;70.10;;;;;;5056569;28;20132;-39
2023/12/16 09:24:17;;;;;;;124.38;56.05;;;14.90;70.10;;;;;;5055684;28;20120;-39
2023/12/16 09:26:44;;;;;;;124.43;55.25;;;14.90;70.80;;;;;;5060255;28;20522;-39
2023/12/16 09:29:11;;;;;;;123.53;55.60;;;14.90;70.10;;;;;;5059084;28;20029;-39
2023/12/16 09:31:37;;;;;;;126.07;56.22;;;14.90;70.00;;;;;;5050607;28;20132;-41
2023/12/16 09:34:02;;;;;;;122.15;55.13;;;15.00;70.00;;;;;;5053154;28;20091;-38
2023/12/16 09:36:29;;;;;;;124.57;55.63;;;15.00;69.90;;;;;;5052083;28;20318;-38
2023/12/16 09:38:55;;;;;;;125.43;55.97;;;15.00;69.80;;;;;;5056186;28;20057;-39
2023/12/16 09:41:25;;;;;;;121.90;55.22;;;15.00;70.90;;;;;;5055868;28;20179;-38
2023/12/16 09:43:53;;;;;;;124.50;55.65;;;15.00;70.10;;;;;;5051005;28;20103;-38
2023/12/16 09:46:24;;;;;;;125.78;56.05;;;15.00;70.30;;;;;;5054177;28;20038;-38
2023/12/16 09:48:54;;;;;;;128.82;56.35;;;15.00;70.50;;;;;;5052516;28;20183;-38
2023/12/16 09:51:23;;;;;;;125.40;55.15;;;15.00;70.30;;;;;;5058101;28;20108;-38
2023/12/16 09:53:49;;;;;;;125.47;55.47;;;15.00;70.50;;;;;;5057677;28;20231;-38
2023/12/16 09:56:16;;;;;;;124.75;55.72;;;15.00;70.50;;;;;;5055452;28;20584;-37
2023/12/16 09:58:43;;;;;;;123.03;55.55;;;15.00;70.50;;;;;;5056598;28;20037;-38
2023/12/16 10:01:10;;;;;;;124.10;55.65;;;15.00;70.40;;;;;;5061348;28;20037;-41
2023/12/16 10:03:41;;;;;;;126.13;55.90;;;15.00;70.40;;;;;;5049779;28;20049;-38
2023/12/16 10:06:08;;;;;;;126.38;56.08;;;15.00;70.30;;;;;;5058675;28;20033;-38
2023/12/16 10:08:39;;;;;;;124.35;56.10;;;14.90;70.30;;;;;;5055158;28;20059;-38
2023/12/16 10:11:05;;;;;;;126.88;56.05;;;14.90;70.30;;;;;;5057054;28;20033;-38
2023/12/16 10:13:54;;;;;;;131.02;56.90;;;15.00;70.20;;;;;;5045038;28;20119;-37
2023/12/16 10:16:22;;;;;;;124.10;55.67;;;14.90;70.20;;;;;;5046260;28;20119;-38
2023/12/16 10:18:55;;;;;;;124.32;54.97;;;15.00;70.20;;;;;;5054289;28;20160;-37
2023/12/16 10:21:26;;;;;;;125.70;57.15;;;15.00;70.20;;;;;;5056510;28;20116;-38
2023/12/16 10:23:52;;;;;;;130.88;59.38;;;15.00;70.70;;;;;;5056365;28;20188;-38
2023/12/16 10:26:18;;;;;;;130.52;61.30;;;15.00;71.10;;;;;;5057843;28;20645;-38
2023/12/16 10:28:47;;;;;;;132.02;62.40;;;15.10;71.40;;;;;;5055566;28;20129;-38
2023/12/16 10:31:18;;;;;;;133.52;62.97;;;15.10;71.30;;;;;;5053620;28;20124;-38
2023/12/16 10:33:47;;;;;;;128.70;62.92;;;15.10;71.40;;;;;;5055058;28;20051;-38
2023/12/16 10:36:14;;;;;;;138.27;67.82;;;15.20;71.50;;;;;;5054804;28;20538;-39
2023/12/16 10:38:40;;;;;;;139.23;70.82;;;15.20;71.60;;;;;;5055264;28;20055;-38
2023/12/16 10:41:06;;;;;;;140.57;68.68;;;15.20;71.60;;;;;;5057198;28;20056;-38
2023/12/16 10:43:32;;;;;;;138.02;67.95;;;15.20;71.90;;;;;;5059650;28;20053;-37
2023/12/16 10:46:03;;;;;;;137.02;67.43;;;15.40;71.40;;;;;;5058563;28;20036;-38
2023/12/16 10:48:33;;;;;;;136.63;66.60;;;15.60;70.90;;;;;;5055222;28;20107;-37
2023/12/16 10:51:02;;;;;;;138.00;66.88;;;15.70;70.40;;;;;;5054115;28;20255;-37
2023/12/16 10:53:36;;;;;;;140.20;65.00;;;15.80;70.20;;;;;;5051377;28;20046;-37
2023/12/16 10:56:07;;;;;;;143.55;65.18;;;15.90;69.70;;;;;;5054816;28;20104;-37
2023/12/16 10:58:37;;;;;;;138.48;65.10;;;16.00;69.60;;;;;;5052502;28;20860;-37
2023/12/16 11:01:12;;;;;;;136.73;64.07;;;16.00;69.30;;;;;;5049142;28;20061;-37
2023/12/16 11:03:50;;;;;;;136.85;64.07;;;16.10;69.30;;;;;;5048458;28;20053;-37
2023/12/16 11:06:29;;;;;;;135.70;63.08;;;16.20;69.10;;;;;;5046872;28;20140;-37
2023/12/16 11:08:57;;;;;;;135.65;63.63;;;16.20;69.20;;;;;;5044250;28;20114;-38
2023/12/16 11:11:23;;;;;;;137.40;62.33;;;16.20;69.00;;;;;;5056429;28;20514;-37
2023/12/16 11:13:52;;;;;;;134.90;61.92;;;16.30;69.00;;;;;;5050283;28;20067;-38
2023/12/16 11:16:26;;;;;;;135.43;62.72;;;16.30;68.80;;;;;;5042860;28;20032;-38
2023/12/16 11:18:54;;;;;;;133.20;61.75;;;16.30;68.60;;;;;;5035921;28;20045;-39
2023/12/16 11:21:22;;;;;;;133.10;61.00;;;16.40;68.60;;;;;;5049640;28;20079;-38
2023/12/16 11:23:48;;;;;;;135.05;61.75;;;16.40;68.80;;;;;;5048960;28;20095;-37
2023/12/16 11:26:17;;;;;;;136.05;62.05;;;16.40;68.50;;;;;;5047508;28;20138;-38
2023/12/16 11:28:43;;;;;;;133.73;60.70;;;16.40;68.50;;;;;;5055512;28;20076;-38
2023/12/16 11:31:12;;;;;;;135.80;61.53;;;16.50;68.50;;;;;;5053674;28;20586;-37
2023/12/16 11:33:44;;;;;;;133.93;60.83;;;16.40;68.40;;;;;;5048987;28;20134;-38
2023/12/16 11:36:10;;;;;;;135.88;61.20;;;16.50;68.70;;;;;;5043122;28;20029;-38
2023/12/16 11:38:41;;;;;;;136.68;60.72;;;16.50;69.10;;;;;;5056742;28;20608;-36
2023/12/16 11:41:08;;;;;;;132.38;60.42;;;16.50;70.40;;;;;;5048659;28;20037;-39
2023/12/16 11:43:54;;;;;;;132.60;61.22;;;16.50;70.40;;;;;;5056131;28;20114;-40
2023/12/16 11:46:40;;;;;;;135.10;63.00;;;16.50;70.30;;;;;;5052498;28;20028;-38
2023/12/16 11:49:07;;;;;;;138.23;65.35;;;16.50;69.80;;;;;;5053833;28;20036;-38
2023/12/16 11:51:34;;;;;;;139.80;66.22;;;16.50;69.60;;;;;;5052507;28;20044;-38
2023/12/16 11:54:01;;;;;;;136.38;65.53;;;16.50;69.30;;;;;;5043908;28;20630;-39
2023/12/16 11:56:27;;;;;;;143.38;66.97;;;16.50;69.70;;;;;;5047625;28;20889;-39
2023/12/16 11:58:59;;;;;;;146.10;71.68;;;16.50;70.00;;;;;;5054039;28;20560;-40
2023/12/16 12:01:32;;;;;;;145.73;71.38;;;16.70;69.60;;;;;;5050235;28;20182;-36
2023/12/16 12:04:00;;;;;;;142.90;70.70;;;16.90;69.30;;;;;;5055567;28;20037;-34
2023/12/16 12:06:25;;;;;;;144.18;69.90;;;17.00;68.80;;;;;;5054884;28;20119;-36
2023/12/16 12:08:52;;;;;;;142.80;69.22;;;17.00;68.40;;;;;;5048859;28;20051;-36
2023/12/16 12:11:20;;;;;;;147.05;69.65;;;17.10;67.90;;;;;;5054142;28;20565;-36
2023/12/16 12:13:51;;;;;;;148.25;68.93;;;17.10;67.70;;;;;;5052774;28;21027;-36
2023/12/16 12:16:17;;;;;;;;;;;17.10;67.70;;;;;;5056815;28;20037;-49